Tandil, Argentina
Current Conditions -  °F | °C
As of 7:00 PM on Monday 26 Jan 2015 (Local Time) from SAZM Reporting Station
Broken Clouds Broken Clouds  
Wind Chill: 72°   Ceiling: 10000
Heat Index: 72°   Visibility: 5mi
Dew Point: 68°   Wind: 5mph
Humidity: 88%   Direction: 70°ENE
Pressure: 29.62"   Gusts: NA
Location:  37.32°S, 59.15°W
Report Text: SAZM 262200Z 07004KT 8000 SCT015 FEW040CBBKN100 22/20 Q1003
Loading
Personal Weather Stations






























Interactive Weather Map New forecast layout! Learn more

10-Day Weather Forecast

Advertisements
Track Severe Weather on mobile